Time;durP1;ratioP1;P1;durP2;ratioP2;P2;SDS_P1;SDS_P2;PMS_P1;PMS_P2;Temp;Humidity;BMP_temperature;BMP_pressure;BME280_temperature;BME280_humidity;BME280_pressure;Samples;Min_cycle;Max_cycle;Signal;HPM_P1;HPM_P2
2024/02/21 00:00:52;;;;;;;46.83;45.20;;;21.80;56.30;;;;;;5013305;28;20478;-69
2024/02/21 00:03:19;;;;;;;45.70;44.03;;;21.80;56.30;;;;;;5013398;28;20445;-69
2024/02/21 00:05:46;;;;;;;46.60;44.70;;;21.80;56.30;;;;;;5013151;28;20446;-68
2024/02/21 00:08:14;;;;;;;46.00;44.40;;;21.80;56.30;;;;;;5012491;28;20473;-69
2024/02/21 00:10:41;;;;;;;46.90;45.10;;;21.80;56.40;;;;;;5013345;28;20442;-69
2024/02/21 00:13:07;;;;;;;44.20;42.60;;;21.80;56.40;;;;;;5013179;28;20470;-69
2024/02/21 00:15:34;;;;;;;45.07;43.37;;;21.80;56.30;;;;;;5013040;28;20926;-69
2024/02/21 00:18:01;;;;;;;45.47;43.87;;;21.80;56.40;;;;;;5012357;28;20466;-69
2024/02/21 00:20:27;;;;;;;44.83;43.23;;;21.80;56.40;;;;;;5013130;28;21012;-69
2024/02/21 00:22:54;;;;;;;43.63;41.97;;;21.70;56.30;;;;;;5013277;28;20473;-69
2024/02/21 00:25:22;;;;;;;44.13;42.50;;;21.80;56.40;;;;;;5012680;28;20443;-69
2024/02/21 00:27:49;;;;;;;45.63;44.03;;;21.70;56.30;;;;;;5012384;28;20814;-69
2024/02/21 00:30:16;;;;;;;45.77;44.03;;;21.70;56.40;;;;;;5012925;28;20453;-69
2024/02/21 00:32:42;;;;;;;44.70;43.10;;;21.70;56.40;;;;;;5004688;28;20929;-69
2024/02/21 00:35:09;;;;;;;44.70;43.20;;;21.70;56.40;;;;;;5002889;28;20468;-69
2024/02/21 00:37:36;;;;;;;43.27;41.80;;;21.70;56.40;;;;;;5005429;28;20482;-69
2024/02/21 00:40:03;;;;;;;45.40;43.83;;;21.70;56.50;;;;;;5012580;28;20457;-69
2024/02/21 00:42:31;;;;;;;44.27;42.67;;;21.70;56.50;;;;;;5004388;28;20477;-70
2024/02/21 00:44:59;;;;;;;45.40;43.70;;;21.70;56.50;;;;;;5004437;28;20446;-69
2024/02/21 00:47:25;;;;;;;47.67;45.83;;;21.70;56.50;;;;;;4999052;28;20461;-69
2024/02/21 00:49:52;;;;;;;46.07;44.27;;;21.70;56.60;;;;;;5012489;28;20921;-69
2024/02/21 00:52:19;;;;;;;46.53;44.83;;;21.70;56.60;;;;;;5012406;28;22990;-69
2024/02/21 00:54:45;;;;;;;46.33;44.53;;;21.70;56.60;;;;;;5012385;28;20451;-69
2024/02/21 00:57:12;;;;;;;44.80;43.20;;;21.60;56.50;;;;;;5011502;28;20469;-69
2024/02/21 00:59:41;;;;;;;47.00;45.30;;;21.60;56.60;;;;;;5006743;28;20449;-69
2024/02/21 01:02:08;;;;;;;44.70;43.10;;;21.60;56.60;;;;;;5012232;28;20561;-69
2024/02/21 01:04:36;;;;;;;45.30;43.70;;;21.60;56.60;;;;;;5012301;28;20477;-69
2024/02/21 01:07:03;;;;;;;48.30;46.50;;;21.60;56.60;;;;;;5011248;28;20553;-69
2024/02/21 01:09:29;;;;;;;47.63;45.60;;;21.60;56.60;;;;;;5010949;28;20438;-69
2024/02/21 01:11:56;;;;;;;42.37;40.87;;;21.60;56.70;;;;;;5012215;28;20442;-69
2024/02/21 01:14:23;;;;;;;44.77;43.07;;;21.60;56.70;;;;;;5011954;28;20446;-69
2024/02/21 01:16:51;;;;;;;42.13;40.63;;;21.60;56.70;;;;;;5011292;28;20445;-69
2024/02/21 01:19:18;;;;;;;42.43;40.97;;;21.50;56.70;;;;;;5011922;28;20528;-69
2024/02/21 01:21:44;;;;;;;42.50;40.90;;;21.50;56.70;;;;;;5012213;28;20851;-68
2024/02/21 01:24:11;;;;;;;41.80;40.30;;;21.50;56.70;;;;;;5012054;28;20470;-69
2024/02/21 01:26:38;;;;;;;47.20;45.60;;;21.50;56.70;;;;;;5011098;28;20937;-69
2024/02/21 01:29:04;;;;;;;46.30;44.70;;;21.50;56.80;;;;;;5011808;28;20446;-69
2024/02/21 01:31:31;;;;;;;45.93;44.23;;;21.50;56.80;;;;;;5012099;28;20443;-69
2024/02/21 01:33:59;;;;;;;46.40;44.50;;;21.50;56.80;;;;;;5011869;28;20446;-69
2024/02/21 01:36:26;;;;;;;45.17;43.57;;;21.50;56.90;;;;;;5011426;28;20922;-70
2024/02/21 01:38:53;;;;;;;45.03;43.23;;;21.50;56.90;;;;;;5011484;28;20458;-69
2024/02/21 01:41:20;;;;;;;46.63;44.90;;;21.50;56.90;;;;;;5011771;28;20485;-69
2024/02/21 01:43:47;;;;;;;46.07;44.47;;;21.50;56.90;;;;;;5011873;28;20449;-69
2024/02/21 01:46:13;;;;;;;44.87;43.20;;;21.50;57.00;;;;;;5011409;28;20446;-69
2024/02/21 01:48:41;;;;;;;45.43;43.83;;;21.40;56.90;;;;;;5011036;28;20462;-69
2024/02/21 01:51:09;;;;;;;43.07;41.50;;;21.50;57.00;;;;;;5011535;28;20930;-69
2024/02/21 01:53:38;;;;;;;45.70;44.00;;;21.50;57.00;;;;;;5011599;28;20450;-68
2024/02/21 01:56:07;;;;;;;44.83;43.23;;;21.50;57.00;;;;;;5011193;28;20462;-69
2024/02/21 01:58:37;;;;;;;44.33;42.83;;;21.50;57.10;;;;;;5011021;28;20469;-69
2024/02/21 02:01:04;;;;;;;45.20;43.60;;;21.40;57.00;;;;;;5011512;28;20551;-69
2024/02/21 02:03:31;;;;;;;45.13;43.40;;;21.40;57.10;;;;;;5011660;28;20445;-69
2024/02/21 02:05:58;;;;;;;45.17;43.50;;;21.40;57.10;;;;;;5010811;28;20449;-69
2024/02/21 02:08:27;;;;;;;44.90;43.07;;;21.40;57.10;;;;;;5011466;28;20464;-70
2024/02/21 02:10:53;;;;;;;45.37;43.77;;;21.40;57.10;;;;;;5011641;28;20807;-68
2024/02/21 02:13:20;;;;;;;45.60;44.00;;;21.40;57.10;;;;;;5011396;28;20454;-69
2024/02/21 02:15:48;;;;;;;45.23;43.73;;;21.40;57.10;;;;;;5010679;28;20770;-69
2024/02/21 02:18:16;;;;;;;45.43;43.83;;;21.40;57.10;;;;;;5011434;28;20874;-69
2024/02/21 02:20:44;;;;;;;44.63;43.13;;;21.40;57.10;;;;;;5012114;28;20682;-69
2024/02/21 02:23:12;;;;;;;45.50;43.80;;;21.40;57.10;;;;;;5013583;28;20484;-69
2024/02/21 02:25:40;;;;;;;43.77;42.17;;;21.40;57.20;;;;;;5015140;28;20925;-69
2024/02/21 02:28:08;;;;;;;45.47;43.77;;;21.40;57.20;;;;;;5006556;28;20473;-69
2024/02/21 02:30:35;;;;;;;44.87;43.13;;;21.40;57.20;;;;;;5003439;28;20446;-69
2024/02/21 02:33:02;;;;;;;45.60;43.93;;;21.40;57.20;;;;;;5010852;28;20530;-69
2024/02/21 02:35:29;;;;;;;44.60;42.73;;;21.40;57.20;;;;;;5014824;28;20437;-69
2024/02/21 02:37:56;;;;;;;44.27;42.67;;;21.40;57.20;;;;;;5014835;28;20466;-69
2024/02/21 02:40:23;;;;;;;45.50;43.90;;;21.40;57.30;;;;;;5014771;28;20930;-69
2024/02/21 02:42:51;;;;;;;46.20;44.60;;;21.30;57.20;;;;;;5010647;28;20849;-69
2024/02/21 02:45:18;;;;;;;45.17;43.57;;;21.30;57.20;;;;;;5014491;28;20929;-69
2024/02/21 02:47:46;;;;;;;45.87;44.17;;;21.30;57.20;;;;;;5006680;28;20471;-69
2024/02/21 02:50:13;;;;;;;45.53;43.77;;;21.30;57.30;;;;;;5005377;28;20663;-69
2024/02/21 02:52:40;;;;;;;44.50;43.00;;;21.30;57.30;;;;;;5007391;28;20438;-69
2024/02/21 02:55:08;;;;;;;44.47;42.77;;;21.30;57.30;;;;;;5014554;28;20449;-69
2024/02/21 02:57:34;;;;;;;43.60;42.00;;;21.30;57.30;;;;;;5014381;28;20468;-69
2024/02/21 03:00:03;;;;;;;44.73;43.07;;;21.30;57.30;;;;;;5014549;28;20529;-69
2024/02/21 03:02:31;;;;;;;43.23;41.63;;;21.30;57.30;;;;;;5005717;28;20477;-69
2024/02/21 03:04:57;;;;;;;47.37;45.67;;;21.30;57.30;;;;;;5014488;28;20497;-69
2024/02/21 03:07:26;;;;;;;44.57;43.07;;;21.30;57.30;;;;;;5014181;28;20462;-69
2024/02/21 03:09:53;;;;;;;46.70;45.00;;;21.30;57.40;;;;;;5014333;28;20468;-69
2024/02/21 03:12:24;;;;;;;46.83;44.93;;;21.30;57.40;;;;;;5013822;28;20442;-69
2024/02/21 03:14:51;;;;;;;45.23;43.63;;;21.30;57.40;;;;;;5014220;28;20457;-68
2024/02/21 03:17:19;;;;;;;44.20;42.67;;;21.30;57.40;;;;;;5013949;28;20873;-69
2024/02/21 03:19:45;;;;;;;46.40;44.60;;;21.30;57.40;;;;;;5007957;28;20446;-69
2024/02/21 03:22:12;;;;;;;42.93;41.43;;;21.30;57.50;;;;;;5014038;28;20474;-70
2024/02/21 03:24:39;;;;;;;45.60;43.93;;;21.30;57.50;;;;;;5013966;28;20441;-69
2024/02/21 03:27:05;;;;;;;44.40;42.53;;;21.20;57.40;;;;;;5013785;28;20476;-69
2024/02/21 03:29:32;;;;;;;42.90;41.33;;;21.20;57.40;;;;;;4999992;28;20822;-69
2024/02/21 03:31:59;;;;;;;45.70;44.00;;;21.20;57.40;;;;;;5013630;28;20442;-69
2024/02/21 03:34:27;;;;;;;45.90;44.30;;;21.20;57.40;;;;;;5013428;28;20446;-69
2024/02/21 03:36:53;;;;;;;45.47;43.87;;;21.20;57.40;;;;;;5013398;28;20446;-69
2024/02/21 03:39:21;;;;;;;43.70;41.97;;;21.20;57.50;;;;;;5013278;28;20457;-69
2024/02/21 03:41:47;;;;;;;43.93;42.23;;;21.20;57.50;;;;;;5013678;28;20486;-69
2024/02/21 03:44:14;;;;;;;45.20;43.50;;;21.20;57.50;;;;;;5013546;28;20438;-69
2024/02/21 03:46:41;;;;;;;44.60;43.10;;;21.20;57.50;;;;;;5013459;28;20442;-69
2024/02/21 03:49:08;;;;;;;43.10;41.60;;;21.20;57.60;;;;;;5013313;28;20442;-69
2024/02/21 03:51:36;;;;;;;43.27;41.77;;;21.20;57.60;;;;;;5005884;28;20516;-69
2024/02/21 03:54:02;;;;;;;47.13;45.20;;;21.20;57.60;;;;;;5013503;28;20442;-69
2024/02/21 03:56:29;;;;;;;44.00;42.40;;;21.20;57.60;;;;;;5002336;28;20439;-69
2024/02/21 03:58:56;;;;;;;45.70;44.10;;;21.20;57.60;;;;;;5005544;28;20454;-68
2024/02/21 04:01:23;;;;;;;48.07;46.27;;;21.20;57.60;;;;;;5013219;28;20449;-68
2024/02/21 04:03:49;;;;;;;46.70;45.10;;;21.20;57.60;;;;;;5013366;28;20446;-69
2024/02/21 04:06:16;;;;;;;46.23;44.63;;;21.20;57.60;;;;;;5012992;28;20445;-69
2024/02/21 04:08:44;;;;;;;46.27;44.67;;;21.20;57.60;;;;;;5012553;28;20969;-69
2024/02/21 04:11:11;;;;;;;46.57;44.90;;;21.20;57.70;;;;;;5013224;28;20465;-69
2024/02/21 04:13:37;;;;;;;47.77;46.00;;;21.20;57.60;;;;;;5013201;28;20449;-68
2024/02/21 04:16:05;;;;;;;49.10;47.40;;;21.20;57.70;;;;;;5012861;28;20445;-69
2024/02/21 04:18:32;;;;;;;48.63;46.93;;;21.20;57.70;;;;;;5012241;28;20517;-68
2024/02/21 04:20:59;;;;;;;46.10;44.50;;;21.20;57.70;;;;;;5013161;28;20962;-69
2024/02/21 04:23:26;;;;;;;47.77;46.07;;;21.20;57.70;;;;;;5013241;28;20478;-69
2024/02/21 04:25:54;;;;;;;45.70;44.00;;;21.10;57.60;;;;;;5012989;28;20790;-68
2024/02/21 04:28:20;;;;;;;46.60;44.90;;;21.20;57.70;;;;;;5012253;28;20466;-69
2024/02/21 04:30:47;;;;;;;48.20;46.50;;;21.20;57.70;;;;;;5012847;28;20446;-69
2024/02/21 04:33:14;;;;;;;46.70;45.00;;;21.20;57.70;;;;;;5013071;28;20442;-69
2024/02/21 04:35:40;;;;;;;47.30;45.60;;;21.20;57.70;;;;;;5012668;28;20453;-69
2024/02/21 04:38:07;;;;;;;45.23;43.63;;;21.20;57.70;;;;;;5030275;23;20500;-65
2024/02/21 04:40:34;;;;;;;44.03;42.53;;;21.20;57.70;;;;;;5019965;28;20456;-66
2024/02/21 04:43:02;;;;;;;45.17;43.57;;;21.20;57.70;;;;;;5028436;28;20484;-66
2024/02/21 04:45:28;;;;;;;45.77;44.17;;;21.20;57.70;;;;;;5020299;28;20960;-66
2024/02/21 04:47:55;;;;;;;44.10;42.60;;;21.20;57.80;;;;;;5021189;28;20466;-65
2024/02/21 04:50:22;;;;;;;46.27;44.37;;;21.20;57.90;;;;;;5024083;28;20445;-66
2024/02/21 04:52:48;;;;;;;47.23;45.43;;;21.10;58.00;;;;;;5030085;28;20433;-66
2024/02/21 04:55:15;;;;;;;45.00;43.47;;;21.10;58.10;;;;;;5022958;28;20449;-65
2024/02/21 04:57:42;;;;;;;47.33;45.63;;;21.20;58.20;;;;;;5020648;28;20884;-65
2024/02/21 05:00:11;;;;;;;49.53;47.73;;;21.20;58.30;;;;;;5023038;28;20448;-66
2024/02/21 05:02:38;;;;;;;48.97;47.20;;;21.10;58.20;;;;;;5020562;28;20501;-66
2024/02/21 05:05:05;;;;;;;50.10;48.37;;;21.10;58.20;;;;;;5020403;28;20446;-66
2024/02/21 05:07:32;;;;;;;50.00;48.00;;;21.10;58.30;;;;;;5022820;28;20814;-66
2024/02/21 05:09:58;;;;;;;50.57;48.77;;;21.10;58.30;;;;;;5029436;28;20448;-65
2024/02/21 05:12:25;;;;;;;49.67;47.87;;;21.10;58.40;;;;;;5021953;28;20469;-65
2024/02/21 05:14:52;;;;;;;52.50;50.70;;;21.10;58.50;;;;;;5020139;28;20450;-65
2024/02/21 05:17:20;;;;;;;52.83;50.87;;;21.10;58.50;;;;;;5021119;28;20449;-65
2024/02/21 05:19:46;;;;;;;51.93;50.13;;;21.10;58.50;;;;;;5029690;28;20841;-66
2024/02/21 05:22:13;;;;;;;52.10;50.20;;;21.10;58.50;;;;;;5023341;28;20481;-66
2024/02/21 05:24:40;;;;;;;50.77;48.77;;;21.10;58.50;;;;;;5020972;28;20441;-65
2024/02/21 05:27:07;;;;;;;52.90;50.97;;;21.10;58.50;;;;;;5021810;28;20574;-66
2024/02/21 05:29:35;;;;;;;53.60;51.70;;;21.10;58.60;;;;;;5015442;28;20472;-66
2024/02/21 05:32:02;;;;;;;55.00;53.00;;;21.10;58.50;;;;;;5023445;28;20473;-66
2024/02/21 05:34:30;;;;;;;55.70;53.37;;;21.20;58.60;;;;;;5021144;28;20477;-66
2024/02/21 05:36:57;;;;;;;57.83;55.73;;;21.10;58.60;;;;;;5021239;28;20804;-65
2024/02/21 05:39:24;;;;;;;53.67;51.77;;;21.10;58.70;;;;;;5023363;28;20470;-66
2024/02/21 05:41:51;;;;;;;52.30;50.23;;;21.20;58.80;;;;;;5024053;28;20438;-65
2024/02/21 05:44:18;;;;;;;48.87;47.17;;;21.10;58.70;;;;;;5022485;28;20441;-66
2024/02/21 05:46:45;;;;;;;50.10;48.20;;;21.20;58.80;;;;;;5019840;28;20453;-65
2024/02/21 05:49:11;;;;;;;52.40;50.40;;;21.20;58.80;;;;;;5022522;28;20467;-65
2024/02/21 05:51:39;;;;;;;50.80;49.00;;;21.10;58.80;;;;;;5027776;28;20446;-66
2024/02/21 05:54:07;;;;;;;56.33;54.23;;;21.20;58.80;;;;;;5023985;28;20437;-66
2024/02/21 05:56:33;;;;;;;54.03;52.10;;;21.10;59.30;;;;;;5025037;28;20747;-66
2024/02/21 05:59:00;;;;;;;64.87;62.63;;;21.20;58.80;;;;;;5027240;28;20469;-65
2024/02/21 06:01:27;;;;;;;66.70;64.40;;;21.20;58.80;;;;;;5019785;28;20442;-66
2024/02/21 06:03:54;;;;;;;65.63;63.20;;;21.10;58.70;;;;;;5029930;28;20489;-65
2024/02/21 06:06:21;;;;;;;54.80;52.47;;;21.20;59.30;;;;;;5024362;28;20952;-65
2024/02/21 06:08:49;;;;;;;51.83;49.93;;;21.20;58.70;;;;;;5026457;28;20556;-65
2024/02/21 06:11:16;;;;;;;55.90;53.43;;;21.20;58.70;;;;;;5031742;28;20983;-66
2024/02/21 06:13:43;;;;;;;55.20;52.70;;;21.20;58.70;;;;;;5023696;28;20442;-66
2024/02/21 06:16:09;;;;;;;56.53;54.43;;;21.20;58.80;;;;;;5023371;28;20453;-65
2024/02/21 06:18:37;;;;;;;52.53;50.40;;;21.20;58.90;;;;;;5027165;28;20457;-65
2024/02/21 06:21:05;;;;;;;54.83;52.60;;;21.20;59.00;;;;;;5030243;28;20874;-66
2024/02/21 06:23:31;;;;;;;53.50;51.33;;;21.20;59.20;;;;;;5024457;28;20480;-66
2024/02/21 06:25:59;;;;;;;55.77;53.10;;;21.20;59.20;;;;;;5023550;28;20800;-65
2024/02/21 06:28:26;;;;;;;52.87;50.17;;;21.20;59.60;;;;;;5026535;28;20473;-65
2024/02/21 06:30:53;;;;;;;58.17;55.83;;;21.20;60.70;;;;;;5026621;28;20441;-65
2024/02/21 06:33:22;;;;;;;57.07;54.60;;;21.20;61.50;;;;;;5025903;28;20459;-65
2024/02/21 06:35:52;;;;;;;56.73;54.27;;;21.20;61.90;;;;;;5022990;28;20529;-65
2024/02/21 06:38:18;;;;;;;55.57;53.23;;;21.20;61.80;;;;;;5023312;28;20469;-65
2024/02/21 06:40:49;;;;;;;53.57;51.13;;;21.20;61.70;;;;;;5026434;28;20476;-65
2024/02/21 06:43:18;;;;;;;58.90;56.40;;;21.20;61.50;;;;;;5026429;28;21039;-66
2024/02/21 06:45:47;;;;;;;57.07;54.67;;;21.20;61.30;;;;;;5022991;28;20446;-65
2024/02/21 06:48:14;;;;;;;56.23;53.53;;;21.20;61.10;;;;;;5022947;28;20469;-65
2024/02/21 06:50:40;;;;;;;52.37;50.30;;;21.20;60.90;;;;;;5025986;28;20464;-66
2024/02/21 06:53:07;;;;;;;55.17;52.73;;;21.20;60.70;;;;;;5026382;28;20931;-65
2024/02/21 06:55:34;;;;;;;52.40;50.00;;;21.20;60.50;;;;;;5023307;28;20445;-65
2024/02/21 06:58:01;;;;;;;55.40;53.30;;;21.30;60.40;;;;;;5022550;28;20469;-66
2024/02/21 07:00:29;;;;;;;55.23;52.60;;;21.30;60.20;;;;;;5024115;28;20555;-65
2024/02/21 07:02:56;;;;;;;53.70;51.50;;;21.30;60.10;;;;;;5026049;28;20492;-65
2024/02/21 07:05:23;;;;;;;54.70;52.70;;;21.30;59.90;;;;;;5024841;28;20516;-65
2024/02/21 07:07:49;;;;;;;55.37;53.07;;;21.30;59.80;;;;;;5021447;28;20462;-65
2024/02/21 07:10:16;;;;;;;56.50;54.23;;;21.30;59.70;;;;;;5022476;28;20444;-66
2024/02/21 07:12:43;;;;;;;61.83;59.33;;;21.30;59.60;;;;;;5022584;28;20434;-65
2024/02/21 07:15:10;;;;;;;57.97;55.77;;;21.30;59.50;;;;;;5022312;28;20449;-65
2024/02/21 07:17:38;;;;;;;52.40;50.30;;;21.30;59.40;;;;;;5024488;28;20446;-65
2024/02/21 07:20:05;;;;;;;58.37;56.00;;;21.30;59.30;;;;;;5025784;28;20437;-65
2024/02/21 07:22:32;;;;;;;60.13;57.63;;;21.30;59.20;;;;;;5023711;28;20450;-66
2024/02/21 07:24:58;;;;;;;57.00;54.40;;;21.30;59.10;;;;;;5022182;28;20446;-65
2024/02/21 07:27:27;;;;;;;59.03;56.40;;;21.30;59.00;;;;;;5022756;28;20445;-65
2024/02/21 07:29:54;;;;;;;55.60;53.30;;;21.30;58.90;;;;;;5025561;28;20445;-65
2024/02/21 07:32:21;;;;;;;60.87;58.57;;;21.30;58.80;;;;;;5024964;28;20859;-65
2024/02/21 07:34:49;;;;;;;58.27;55.97;;;21.40;58.80;;;;;;5022086;28;20438;-65
2024/02/21 07:37:16;;;;;;;57.70;55.43;;;21.40;58.70;;;;;;5021782;28;20442;-65
2024/02/21 07:39:42;;;;;;;63.70;61.10;;;21.40;58.60;;;;;;5024734;28;20465;-65
2024/02/21 07:42:09;;;;;;;60.77;58.37;;;21.40;58.50;;;;;;5025264;28;20448;-65
2024/02/21 07:44:36;;;;;;;58.57;56.37;;;21.40;58.40;;;;;;5022723;28;21027;-65
2024/02/21 07:47:02;;;;;;;57.10;54.83;;;21.40;58.40;;;;;;5021584;28;20470;-65
2024/02/21 07:49:29;;;;;;;56.77;54.67;;;21.40;58.30;;;;;;5023017;28;20480;-65
2024/02/21 07:51:57;;;;;;;58.80;56.40;;;21.40;58.20;;;;;;5025022;28;20453;-65
2024/02/21 07:54:24;;;;;;;60.53;58.27;;;21.40;58.10;;;;;;5024245;28;20449;-65
2024/02/21 07:56:50;;;;;;;61.03;58.73;;;21.40;58.00;;;;;;5021398;28;20637;-65
2024/02/21 07:59:17;;;;;;;59.90;57.50;;;21.40;57.90;;;;;;5021494;28;20466;-65
2024/02/21 08:01:45;;;;;;;63.60;61.10;;;21.40;57.90;;;;;;5024788;28;20544;-65
2024/02/21 08:04:12;;;;;;;57.20;54.90;;;21.40;57.80;;;;;;5024798;28;20505;-65
2024/02/21 08:06:38;;;;;;;57.70;55.60;;;21.40;57.70;;;;;;5021893;28;20445;-65
2024/02/21 08:09:06;;;;;;;59.10;56.83;;;21.40;57.70;;;;;;5021274;28;20469;-65
2024/02/21 08:11:33;;;;;;;59.40;57.10;;;21.40;57.60;;;;;;5022992;28;20453;-65
2024/02/21 08:14:00;;;;;;;59.83;57.73;;;21.50;57.60;;;;;;5024763;28;20437;-65
2024/02/21 08:16:27;;;;;;;57.70;55.50;;;21.40;57.50;;;;;;5023433;28;20449;-65
2024/02/21 08:18:54;;;;;;;56.80;54.70;;;21.40;58.00;;;;;;5020936;28;20469;-65
2024/02/21 08:21:21;;;;;;;57.70;55.50;;;21.50;57.40;;;;;;5021184;28;20445;-65
2024/02/21 08:23:51;;;;;;;55.13;53.13;;;21.40;57.30;;;;;;5024404;28;20480;-65
2024/02/21 08:26:19;;;;;;;53.93;51.93;;;21.50;57.30;;;;;;5024336;28;20524;-65
2024/02/21 08:28:46;;;;;;;55.97;53.90;;;21.40;57.20;;;;;;5020945;28;20843;-65
2024/02/21 08:31:19;;;;;;;52.70;50.60;;;21.50;57.30;;;;;;5021082;28;20442;-65
2024/02/21 08:33:47;;;;;;;52.70;50.80;;;21.40;57.10;;;;;;5032539;28;20433;-65
2024/02/21 08:36:19;;;;;;;56.20;54.10;;;21.50;57.10;;;;;;5024003;28;20449;-64
2024/02/21 08:38:45;;;;;;;56.10;54.10;;;21.40;57.00;;;;;;5020865;28;20485;-65
2024/02/21 08:41:12;;;;;;;56.93;54.80;;;21.50;57.60;;;;;;5020895;28;20450;-65
2024/02/21 08:43:40;;;;;;;56.63;54.43;;;21.50;57.00;;;;;;5022875;28;20482;-65
2024/02/21 08:46:07;;;;;;;58.70;56.47;;;21.50;57.00;;;;;;5023813;28;20444;-65
2024/02/21 08:48:34;;;;;;;62.60;60.40;;;21.50;57.00;;;;;;5022465;28;20971;-66
2024/02/21 08:51:00;;;;;;;60.00;57.70;;;21.50;56.90;;;;;;5020699;28;20792;-65
2024/02/21 08:53:27;;;;;;;57.67;55.50;;;21.50;56.90;;;;;;5021023;28;20465;-65
2024/02/21 08:55:54;;;;;;;56.57;54.37;;;21.50;56.80;;;;;;5023694;28;20449;-64
2024/02/21 08:58:23;;;;;;;62.10;59.80;;;21.50;56.80;;;;;;5023825;28;20457;-65
2024/02/21 09:00:51;;;;;;;57.00;55.00;;;21.50;56.80;;;;;;5024153;28;20835;-65
2024/02/21 09:03:19;;;;;;;59.47;57.37;;;21.50;57.30;;;;;;5023806;28;20973;-65
2024/02/21 09:05:46;;;;;;;57.50;55.40;;;21.50;56.80;;;;;;5020136;28;20442;-66
2024/02/21 09:08:13;;;;;;;55.60;53.50;;;21.50;56.70;;;;;;5020286;28;20462;-65
2024/02/21 09:10:41;;;;;;;57.60;55.50;;;21.50;56.70;;;;;;5022662;28;20446;-65
2024/02/21 09:13:08;;;;;;;59.50;57.23;;;21.50;56.70;;;;;;5023651;28;20441;-65
2024/02/21 09:15:35;;;;;;;61.47;59.27;;;21.50;56.70;;;;;;5021530;28;20900;-65
2024/02/21 09:18:03;;;;;;;58.10;56.10;;;21.50;56.60;;;;;;5020201;28;20758;-65
2024/02/21 09:20:31;;;;;;;56.13;54.13;;;21.50;56.60;;;;;;5021021;28;20549;-65
2024/02/21 09:22:57;;;;;;;58.27;56.17;;;21.50;56.50;;;;;;5023550;28;20503;-65
2024/02/21 09:25:24;;;;;;;59.03;56.90;;;21.50;56.50;;;;;;5022894;28;20477;-65
2024/02/21 09:27:51;;;;;;;58.23;56.13;;;21.50;56.50;;;;;;5019970;28;20458;-65
2024/02/21 09:30:18;;;;;;;58.60;56.50;;;21.60;56.50;;;;;;5019520;28;20449;-65
2024/02/21 09:32:45;;;;;;;59.53;57.30;;;21.50;56.40;;;;;;5022646;28;20806;-65
2024/02/21 09:35:13;;;;;;;58.37;56.20;;;21.50;56.40;;;;;;5023423;28;20437;-65
2024/02/21 09:37:40;;;;;;;58.53;56.40;;;21.50;56.30;;;;;;5020694;28;20445;-65
2024/02/21 09:40:08;;;;;;;59.53;57.43;;;21.60;56.40;;;;;;5019900;28;20449;-65
2024/02/21 09:42:38;;;;;;;61.37;59.17;;;21.60;56.40;;;;;;5021064;28;20453;-65
2024/02/21 09:45:09;;;;;;;59.67;57.37;;;21.50;56.20;;;;;;5023088;28;20523;-65
2024/02/21 09:47:51;;;;;;;60.27;58.07;;;21.50;56.20;;;;;;5021407;28;20441;-65
2024/02/21 09:50:22;;;;;;;61.43;59.10;;;21.50;56.20;;;;;;5019822;28;20442;-65
2024/02/21 09:52:50;;;;;;;58.93;56.83;;;21.50;56.10;;;;;;5022957;28;20445;-65
2024/02/21 09:55:18;;;;;;;60.70;58.43;;;21.60;56.20;;;;;;5023004;28;20448;-65
2024/02/21 09:57:45;;;;;;;61.40;59.13;;;21.60;56.20;;;;;;5020263;28;20452;-65
2024/02/21 10:00:21;;;;;;;62.60;60.20;;;21.60;56.10;;;;;;5019686;28;20956;-65
2024/02/21 10:02:48;;;;;;;62.83;60.60;;;21.60;56.10;;;;;;5022509;28;20923;-65
2024/02/21 10:05:14;;;;;;;63.30;61.10;;;21.60;56.10;;;;;;5022920;28;20480;-65
2024/02/21 10:07:43;;;;;;;61.50;59.30;;;21.60;56.10;;;;;;5020418;28;20449;-65
2024/02/21 10:10:10;;;;;;;60.40;58.20;;;21.60;56.10;;;;;;5019470;28;20439;-65
2024/02/21 10:12:37;;;;;;;60.80;58.70;;;21.60;56.10;;;;;;5020887;28;20442;-65
2024/02/21 10:15:04;;;;;;;59.33;57.23;;;21.60;56.10;;;;;;5023136;28;20437;-65
2024/02/21 10:17:31;;;;;;;62.80;60.60;;;21.60;56.00;;;;;;5021697;28;20441;-65
2024/02/21 10:20:08;;;;;;;62.10;59.90;;;21.60;56.00;;;;;;5019478;28;20442;-64
2024/02/21 10:22:36;;;;;;;62.97;60.77;;;21.60;56.00;;;;;;5020576;28;20449;-65
2024/02/21 10:25:09;;;;;;;60.80;58.70;;;21.60;55.90;;;;;;5022761;28;20487;-65
2024/02/21 10:27:36;;;;;;;64.00;61.80;;;21.60;55.90;;;;;;5021128;28;20445;-65
2024/02/21 10:30:04;;;;;;;63.97;61.57;;;21.60;55.90;;;;;;5019522;28;20453;-65
2024/02/21 10:32:31;;;;;;;58.20;56.17;;;21.60;55.90;;;;;;5019805;28;20824;-65
2024/02/21 10:35:03;;;;;;;56.57;54.47;;;21.60;55.80;;;;;;5022784;28;20437;-65
2024/02/21 10:37:29;;;;;;;58.33;55.90;;;21.60;55.80;;;;;;5022057;28;20943;-66
2024/02/21 10:39:56;;;;;;;57.00;55.00;;;21.60;55.80;;;;;;5019565;28;20449;-65
2024/02/21 10:42:30;;;;;;;59.10;57.00;;;21.60;55.80;;;;;;5021239;28;20438;-65
2024/02/21 10:45:04;;;;;;;55.40;53.33;;;21.60;55.70;;;;;;5022857;28;20505;-65
2024/02/21 10:47:33;;;;;;;54.87;52.97;;;21.60;55.70;;;;;;5023002;28;20442;-64
2024/02/21 10:50:05;;;;;;;56.23;54.23;;;21.60;55.70;;;;;;5026497;28;20441;-65
2024/02/21 10:52:45;;;;;;;52.97;50.97;;;21.60;55.70;;;;;;5025738;28;20524;-65
2024/02/21 10:55:23;;;;;;;54.03;51.93;;;21.60;55.70;;;;;;5022699;28;20438;-65
2024/02/21 10:57:51;;;;;;;57.60;55.50;;;21.60;55.60;;;;;;5025550;28;20464;-65
2024/02/21 11:00:19;;;;;;;54.70;52.70;;;21.60;55.60;;;;;;5026125;28;20812;-65
2024/02/21 11:02:46;;;;;;;57.60;55.50;;;21.60;55.60;;;;;;5023609;28;20951;-65
2024/02/21 11:05:14;;;;;;;53.70;51.80;;;21.60;55.60;;;;;;5022400;28;20896;-65
2024/02/21 11:07:41;;;;;;;54.90;53.00;;;21.70;55.70;;;;;;5023837;28;20442;-65
2024/02/21 11:10:23;;;;;;;55.30;53.30;;;21.60;55.60;;;;;;5025894;28;20449;-65
2024/02/21 11:12:53;;;;;;;50.73;48.63;;;21.70;55.70;;;;;;5022966;28;20438;-65
2024/02/21 11:15:25;;;;;;;49.90;48.00;;;21.60;55.60;;;;;;5022212;28;20457;-65
2024/02/21 11:17:56;;;;;;;55.60;53.50;;;21.60;55.60;;;;;;5025324;28;20468;-66
2024/02/21 11:20:33;;;;;;;60.80;58.60;;;21.60;55.60;;;;;;5025678;28;20441;-65
2024/02/21 11:23:00;;;;;;;57.10;55.10;;;21.70;55.60;;;;;;5022380;28;20446;-65
2024/02/21 11:25:28;;;;;;;57.03;54.93;;;21.70;55.60;;;;;;5021860;28;20565;-66
2024/02/21 11:28:02;;;;;;;59.33;57.23;;;21.70;55.60;;;;;;5025503;28;20461;-65
2024/02/21 11:30:30;;;;;;;53.30;51.40;;;21.60;55.50;;;;;;5025526;28;20820;-65
2024/02/21 11:33:02;;;;;;;53.43;51.53;;;21.70;55.60;;;;;;5022161;28;20449;-65
2024/02/21 11:35:32;;;;;;;51.50;49.60;;;21.70;55.60;;;;;;5021699;28;20524;-65
2024/02/21 11:38:09;;;;;;;48.80;46.90;;;21.70;55.60;;;;;;5021932;28;20461;-65
2024/02/21 11:40:39;;;;;;;50.13;48.23;;;21.70;55.60;;;;;;5022684;28;20933;-65
2024/02/21 11:43:07;;;;;;;53.30;51.33;;;21.60;55.50;;;;;;5025602;28;20488;-65
2024/02/21 11:45:34;;;;;;;55.63;53.73;;;21.70;55.60;;;;;;5024276;28;20477;-65
2024/02/21 11:48:03;;;;;;;60.33;58.23;;;21.70;55.60;;;;;;5021738;28;20832;-65
2024/02/21 11:50:30;;;;;;;58.80;56.40;;;21.70;55.60;;;;;;5021784;28;20442;-65
2024/02/21 11:52:57;;;;;;;55.07;53.10;;;21.70;55.50;;;;;;5033314;28;20445;-66
2024/02/21 11:55:23;;;;;;;54.73;52.73;;;21.70;55.50;;;;;;5024525;28;20437;-65
2024/02/21 11:57:51;;;;;;;53.00;51.10;;;21.70;55.50;;;;;;5022424;28;20813;-65
2024/02/21 12:00:21;;;;;;;52.57;50.77;;;21.70;55.50;;;;;;5021556;28;20445;-65
2024/02/21 12:02:48;;;;;;;56.90;54.90;;;21.70;55.50;;;;;;5023610;28;20500;-65
2024/02/21 12:05:15;;;;;;;55.20;53.30;;;21.70;55.60;;;;;;5024693;28;20479;-65
2024/02/21 12:07:42;;;;;;;56.20;54.10;;;21.70;55.50;;;;;;5023155;28;20473;-64
2024/02/21 12:10:10;;;;;;;52.70;50.90;;;21.70;55.40;;;;;;5021492;28;20444;-65
2024/02/21 12:12:37;;;;;;;53.83;52.03;;;21.70;55.40;;;;;;5022120;28;20450;-65
2024/02/21 12:15:05;;;;;;;53.90;52.00;;;21.70;55.50;;;;;;5024625;28;20441;-65
2024/02/21 12:17:34;;;;;;;58.40;56.40;;;21.70;55.40;;;;;;5024331;28;20524;-65
2024/02/21 12:20:01;;;;;;;55.30;53.40;;;21.70;55.40;;;;;;5024605;28;20499;-65
2024/02/21 12:22:27;;;;;;;55.93;54.03;;;21.70;55.50;;;;;;5024606;28;20450;-66
2024/02/21 12:24:54;;;;;;;54.77;52.87;;;21.70;55.40;;;;;;5021342;28;20527;-66
2024/02/21 12:27:21;;;;;;;59.03;57.03;;;21.70;55.40;;;;;;5020980;28;20438;-65
2024/02/21 12:29:49;;;;;;;58.27;56.27;;;21.70;55.40;;;;;;5022894;28;20474;-65